Terminal Aerodrome Forecast
Issued by NWS Albuquerque, NM

Home | Current Version | Previous Version | Text Only | Print | Product List | Glossary On
Versions: 1 2 3 4 5 6 7 8 9 10 11 12 13 14
000
FTUS45 KABQ 282343
TAFABQ
TAF
KABQ 282343Z 2900/2924 01011KT P6SM VCSH FEW020 BKN080
     FM290600 36011KT P6SM -SHRA SCT019 BKN035
     FM291000 01010KT P6SM BKN050 BKN100
     FM291800 01011KT P6SM SCT050 BKN100=

USA.gov is the U.S. government's official web portal to all federal, state and local government web resources and services.